Time;durP1;ratioP1;P1;durP2;ratioP2;P2;SDS_P1;SDS_P2;PMS_P1;PMS_P2;Temp;Humidity;BMP_temperature;BMP_pressure;BME280_temperature;BME280_humidity;BME280_pressure;Samples;Min_cycle;Max_cycle;Signal;HPM_P1;HPM_P2
2022/01/24 00:01:41;;;;;;;12.52;6.45;;;1.60;99.90;;;;;;5035091;28;20059;-84
2022/01/24 00:04:08;;;;;;;9.13;5.95;;;1.40;99.90;;;;;;5028363;28;20033;-84
2022/01/24 00:06:34;;;;;;;14.93;6.57;;;1.50;99.90;;;;;;5032208;28;20029;-83
2022/01/24 00:09:01;;;;;;;12.90;6.03;;;1.50;99.90;;;;;;5028096;28;20104;-84
2022/01/24 00:11:39;;;;;;;12.13;5.93;;;1.40;99.90;;;;;;5041331;28;20490;-84
2022/01/24 00:26:54;;;;;;;12.15;6.53;;;1.70;99.90;;;;;;5028370;28;20115;-83
2022/01/24 00:29:22;;;;;;;14.25;7.80;;;1.80;99.90;;;;;;5027674;28;20479;-84
2022/01/24 00:31:49;;;;;;;15.90;7.28;;;1.90;99.90;;;;;;5043484;28;20032;-84
2022/01/24 00:34:15;;;;;;;12.65;6.68;;;1.60;99.90;;;;;;5033647;28;20438;-83
2022/01/24 00:36:42;;;;;;;15.73;7.28;;;1.60;99.90;;;;;;5031936;28;20397;-84
2022/01/24 00:39:08;;;;;;;11.55;6.93;;;1.50;99.90;;;;;;5036967;28;20033;-83
2022/01/24 00:42:05;;;;;;;12.60;6.07;;;1.60;99.90;;;;;;5035255;28;20026;-83
2022/01/24 00:44:50;;;;;;;11.80;6.72;;;1.60;99.90;;;;;;5016170;28;20081;-83
2022/01/24 00:47:24;;;;;;;13.32;6.70;;;1.80;99.90;;;;;;5027880;28;20057;-83
2022/01/24 00:53:10;;;;;;;12.25;6.75;;;1.80;99.90;;;;;;5043205;28;20147;-84
2022/01/24 00:55:24;;;;;;;11.32;6.15;;;1.70;99.90;;;;;;5034676;28;20086;-84
2022/01/24 00:57:50;;;;;;;14.95;7.57;;;1.80;99.90;;;;;;5032976;28;20056;-84
2022/01/24 01:00:16;;;;;;;12.82;7.35;;;2.00;99.90;;;;;;5035995;28;20175;-84
2022/01/24 01:02:42;;;;;;;13.77;6.97;;;2.10;99.90;;;;;;5027136;28;20598;-85
2022/01/24 01:05:32;;;;;;;12.07;6.95;;;2.00;99.90;;;;;;5026655;28;20055;-85
2022/01/24 01:18:47;;;;;;;15.57;7.90;;;2.50;99.90;;;;;;5029866;28;20040;-84
2022/01/24 01:21:15;;;;;;;12.88;8.10;;;2.50;99.90;;;;;;5026888;28;20033;-84
2022/01/24 01:23:47;;;;;;;13.27;7.22;;;2.50;99.90;;;;;;5027656;28;20073;-84
2022/01/24 01:28:49;;;;;;;15.23;7.97;;;2.50;99.90;;;;;;5033019;28;20491;-84
2022/01/24 01:34:49;;;;;;;16.65;7.70;;;2.40;99.90;;;;;;5033125;28;20464;-83
2022/01/24 01:57:57;;;;;;;10.82;6.22;;;1.80;99.90;;;;;;5027033;28;20021;-83
2022/01/24 02:00:23;;;;;;;10.73;6.18;;;1.70;99.90;;;;;;5027945;28;20018;-83
2022/01/24 02:02:48;;;;;;;11.65;6.57;;;1.70;99.90;;;;;;5019264;28;20064;-82
2022/01/24 02:05:15;;;;;;;8.95;5.38;;;1.70;99.90;;;;;;5015861;28;20482;-83
2022/01/24 02:07:46;;;;;;;9.77;5.65;;;1.70;99.90;;;;;;5019080;28;20108;-83
2022/01/24 02:10:12;;;;;;;8.20;5.32;;;1.70;99.90;;;;;;5018685;28;20384;-83
2022/01/24 02:12:38;;;;;;;11.02;5.45;;;1.70;99.90;;;;;;5020066;28;20486;-83
2022/01/24 02:15:04;;;;;;;10.43;5.88;;;1.60;99.90;;;;;;5025477;28;20022;-83
2022/01/24 02:17:43;;;;;;;10.52;6.20;;;1.40;99.90;;;;;;5030539;28;20030;-83
2022/01/24 02:20:37;;;;;;;11.43;5.75;;;1.40;99.90;;;;;;5028516;28;20022;-84
2022/01/24 02:25:42;;;;;;;10.90;6.05;;;1.40;99.90;;;;;;5031917;28;20117;-84
2022/01/24 02:28:11;;;;;;;11.82;5.85;;;1.40;99.90;;;;;;5030191;28;20108;-84
2022/01/24 02:33:05;;;;;;;11.82;5.68;;;1.30;99.90;;;;;;5015598;28;20037;-83
2022/01/24 02:35:30;;;;;;;9.55;5.97;;;1.10;99.90;;;;;;5029985;28;20036;-83
2022/01/24 02:38:00;;;;;;;14.25;5.72;;;1.20;99.90;;;;;;5027812;28;20071;-83
2022/01/24 02:40:26;;;;;;;11.18;5.80;;;1.10;99.90;;;;;;5027063;28;20057;-84
2022/01/24 02:46:07;;;;;;;9.93;5.97;;;1.10;99.90;;;;;;5024871;28;20472;-85
2022/01/24 02:48:33;;;;;;;8.27;5.90;;;1.10;99.90;;;;;;5025259;28;20109;-84
2022/01/24 02:53:32;;;;;;;10.70;5.75;;;1.00;99.90;;;;;;5013616;28;20025;-84
2022/01/24 02:55:58;;;;;;;8.77;5.20;;;1.00;99.90;;;;;;5027633;28;20013;-85
2022/01/24 02:58:24;;;;;;;9.40;4.90;;;0.90;99.90;;;;;;5025046;28;20151;-85
2022/01/24 03:00:51;;;;;;;14.13;6.13;;;1.00;99.90;;;;;;5025309;28;20515;-85
2022/01/24 03:03:17;;;;;;;11.13;6.20;;;0.90;99.90;;;;;;5025410;28;20037;-84
2022/01/24 03:05:43;;;;;;;12.75;6.45;;;0.90;99.90;;;;;;5027384;28;20025;-84
2022/01/24 03:08:09;;;;;;;9.77;5.95;;;0.90;99.90;;;;;;5027724;28;20525;-84
2022/01/24 03:10:40;;;;;;;14.20;6.90;;;0.90;99.90;;;;;;5022461;28;20025;-84
2022/01/24 03:13:48;;;;;;;10.85;6.07;;;0.90;99.90;;;;;;5022760;28;20044;-84
2022/01/24 03:15:57;;;;;;;11.98;6.82;;;0.80;99.90;;;;;;5025017;28;20060;-84
2022/01/24 03:18:23;;;;;;;12.88;6.25;;;0.80;99.90;;;;;;5025099;28;20108;-84
2022/01/24 03:20:50;;;;;;;13.52;7.72;;;0.80;99.90;;;;;;5024787;28;20101;-85
2022/01/24 03:26:38;;;;;;;13.15;7.30;;;0.70;99.90;;;;;;5020427;28;20025;-86
2022/01/24 03:29:04;;;;;;;13.43;7.30;;;0.80;99.90;;;;;;5025179;28;20030;-86
2022/01/24 03:31:30;;;;;;;14.70;6.78;;;0.70;99.90;;;;;;5028740;28;20022;-86
2022/01/24 03:33:56;;;;;;;13.15;7.20;;;0.70;99.90;;;;;;5025950;28;20535;-86
2022/01/24 03:36:21;;;;;;;14.80;6.93;;;0.60;99.90;;;;;;5011163;28;20037;-86
2022/01/24 03:38:47;;;;;;;12.60;6.93;;;0.60;99.90;;;;;;5012167;28;20403;-86
2022/01/24 03:41:13;;;;;;;13.38;6.88;;;0.60;99.90;;;;;;5018732;28;20017;-86
2022/01/24 03:43:38;;;;;;;15.32;7.63;;;0.40;99.90;;;;;;5015626;28;20040;-85
2022/01/24 03:48:40;;;;;;;16.58;8.52;;;0.50;99.90;;;;;;5021141;28;20038;-84
2022/01/24 03:51:06;;;;;;;16.80;8.75;;;0.50;99.90;;;;;;5021431;28;20561;-85
2022/01/24 03:53:32;;;;;;;16.63;8.45;;;0.60;99.90;;;;;;5035799;28;20049;-85
2022/01/24 03:55:57;;;;;;;22.08;9.75;;;0.60;99.90;;;;;;5012736;28;20108;-85
2022/01/24 03:58:23;;;;;;;24.05;11.30;;;0.50;99.90;;;;;;5012498;28;20469;-85
2022/01/24 04:00:49;;;;;;;19.75;10.02;;;0.60;99.90;;;;;;5020547;28;20061;-85
2022/01/24 04:03:14;;;;;;;26.35;10.95;;;0.50;99.90;;;;;;5021184;28;20551;-85
2022/01/24 04:05:41;;;;;;;21.52;11.13;;;0.50;99.90;;;;;;5010610;28;20037;-85
2022/01/24 04:08:07;;;;;;;19.33;9.70;;;0.50;99.90;;;;;;5017194;28;20073;-85
2022/01/24 04:10:46;;;;;;;20.10;10.32;;;0.50;99.90;;;;;;5016177;28;20080;-84
2022/01/24 04:18:44;;;;;;;24.75;10.07;;;0.40;99.90;;;;;;5026408;28;20025;-84
2022/01/24 04:23:49;;;;;;;26.55;10.85;;;0.30;99.90;;;;;;5020415;28;20112;-84
2022/01/24 04:26:15;;;;;;;24.15;10.25;;;0.20;99.90;;;;;;5026355;28;20049;-84
2022/01/24 04:28:41;;;;;;;21.83;10.07;;;0.20;99.90;;;;;;5026211;28;20068;-84
2022/01/24 04:31:06;;;;;;;22.08;9.77;;;0.30;99.90;;;;;;5017343;28;20030;-84
2022/01/24 04:33:32;;;;;;;19.65;9.43;;;0.10;99.90;;;;;;5020832;28;20034;-84
2022/01/24 04:35:58;;;;;;;23.42;9.52;;;0.20;99.90;;;;;;5035205;28;20447;-84
2022/01/24 04:38:24;;;;;;;24.85;10.50;;;0.20;99.90;;;;;;5019303;28;20083;-84
2022/01/24 04:40:55;;;;;;;18.70;8.75;;;0.20;99.90;;;;;;5015634;28;20032;-84
2022/01/24 04:46:30;;;;;;;19.33;9.73;;;0.10;99.90;;;;;;5010429;28;20215;-83
2022/01/24 04:56:35;;;;;;;16.17;7.70;;;0.20;99.90;;;;;;5019528;28;20521;-83
2022/01/24 04:59:01;;;;;;;15.52;7.60;;;0.20;99.90;;;;;;5022447;28;20554;-84
2022/01/24 05:01:27;;;;;;;13.60;7.05;;;0.10;99.90;;;;;;5015559;28;20026;-84
2022/01/24 05:03:53;;;;;;;16.40;8.32;;;0.20;99.90;;;;;;5022062;28;20026;-85
2022/01/24 05:06:19;;;;;;;18.13;8.88;;;0.20;99.90;;;;;;5039049;28;20026;-85
2022/01/24 05:08:45;;;;;;;17.23;8.35;;;0.20;99.90;;;;;;5014285;28;20022;-84
2022/01/24 05:11:16;;;;;;;17.92;8.57;;;0.20;99.90;;;;;;5021528;28;20452;-84
2022/01/24 05:24:37;;;;;;;16.90;7.65;;;0.00;99.90;;;;;;5028605;28;20254;-84
2022/01/24 05:27:04;;;;;;;16.08;7.05;;;0.00;99.90;;;;;;5028524;28;20052;-85
2022/01/24 05:29:29;;;;;;;16.30;7.18;;;0.10;99.90;;;;;;5030602;28;20036;-85
2022/01/24 05:31:55;;;;;;;15.32;7.47;;;0.10;99.90;;;;;;5030534;28;20025;-85
2022/01/24 05:34:22;;;;;;;17.10;7.35;;;0.00;99.90;;;;;;5019119;28;20418;-85
2022/01/24 05:36:48;;;;;;;15.85;8.20;;;0.00;99.90;;;;;;5030959;28;20025;-85
2022/01/24 05:39:14;;;;;;;14.13;7.72;;;0.00;99.90;;;;;;5025822;28;20395;-86
2022/01/24 05:41:39;;;;;;;13.57;7.32;;;0.10;99.90;;;;;;5023692;28;20520;-86
2022/01/24 05:44:06;;;;;;;14.00;8.02;;;0.00;99.90;;;;;;5030091;28;20026;-85
2022/01/24 05:46:32;;;;;;;14.75;7.82;;;0.00;99.90;;;;;;5019283;28;20049;-85
2022/01/24 05:48:58;;;;;;;14.70;7.10;;;0.00;99.90;;;;;;5020862;28;20490;-85
2022/01/24 05:51:24;;;;;;;15.23;7.45;;;0.10;99.90;;;;;;5023023;28;20038;-86
2022/01/24 05:53:50;;;;;;;14.20;6.95;;;0.10;99.90;;;;;;5023485;28;20264;-86
2022/01/24 05:56:16;;;;;;;12.43;6.80;;;0.10;99.90;;;;;;5030869;28;20034;-86
2022/01/24 05:58:42;;;;;;;12.25;7.10;;;0.20;99.90;;;;;;5029357;28;20512;-85
2022/01/24 06:01:08;;;;;;;14.45;7.90;;;0.00;99.90;;;;;;5026845;28;20453;-85
2022/01/24 06:03:34;;;;;;;13.70;6.25;;;0.00;99.90;;;;;;5013821;28;20029;-86
2022/01/24 06:05:59;;;;;;;10.85;6.72;;;0.10;99.90;;;;;;5022840;28;20410;-86
2022/01/24 06:08:25;;;;;;;12.45;6.53;;;0.00;99.90;;;;;;5012301;28;20038;-86
2022/01/24 06:10:53;;;;;;;14.15;6.50;;;0.00;99.90;;;;;;5024914;28;20453;-86
2022/01/24 06:13:19;;;;;;;11.88;6.60;;;0.00;99.90;;;;;;5015690;28;20022;-88
2022/01/24 06:15:45;;;;;;;12.45;6.88;;;0.00;99.90;;;;;;5029805;28;20033;-88
2022/01/24 06:18:11;;;;;;;13.50;7.20;;;0.00;99.90;;;;;;5015176;28;20036;-87
2022/01/24 06:20:37;;;;;;;13.90;7.40;;;-0.10;99.90;;;;;;5022128;28;20025;-87
2022/01/24 06:23:02;;;;;;;13.73;7.45;;;-0.10;99.90;;;;;;5019959;28;20032;-88
2022/01/24 06:25:29;;;;;;;13.10;6.82;;;-0.10;99.90;;;;;;5025041;28;20021;-87
2022/01/24 06:27:55;;;;;;;12.43;6.88;;;-0.20;99.90;;;;;;5017198;28;20030;-87
2022/01/24 06:30:21;;;;;;;14.45;7.03;;;-0.10;99.90;;;;;;5022719;28;20029;-86
2022/01/24 06:32:47;;;;;;;17.08;7.60;;;-0.20;99.90;;;;;;5037752;28;20021;-86
2022/01/24 06:35:14;;;;;;;12.43;6.47;;;-0.20;99.90;;;;;;5019702;28;20103;-86
2022/01/24 06:37:40;;;;;;;13.90;7.25;;;-0.20;99.90;;;;;;5024459;28;20084;-86
2022/01/24 06:40:09;;;;;;;15.45;7.45;;;-0.30;99.90;;;;;;5027126;28;20030;-85
2022/01/24 06:42:36;;;;;;;15.90;7.65;;;-0.30;99.90;;;;;;5026330;28;20103;-85
2022/01/24 06:45:01;;;;;;;15.27;7.40;;;-0.20;99.90;;;;;;5012734;28;20029;-84
2022/01/24 06:47:27;;;;;;;15.38;6.80;;;-0.30;99.90;;;;;;5022249;28;20148;-85
2022/01/24 06:49:53;;;;;;;17.08;8.10;;;-0.30;99.90;;;;;;5025492;28;20037;-85
2022/01/24 06:52:20;;;;;;;16.38;8.15;;;-0.30;99.90;;;;;;5021333;28;20059;-84
2022/01/24 06:54:46;;;;;;;15.73;7.78;;;-0.40;99.90;;;;;;5021871;28;20025;-84
2022/01/24 06:57:13;;;;;;;15.60;7.43;;;-0.40;99.90;;;;;;5022030;28;20022;-80
2022/01/24 06:59:41;;;;;;;13.57;7.63;;;-0.40;99.90;;;;;;5038325;28;20057;-91
2022/01/24 07:02:08;;;;;;;16.17;7.97;;;-0.30;99.90;;;;;;5019339;28;20116;-90
2022/01/24 07:04:36;;;;;;;17.02;7.75;;;-0.30;99.90;;;;;;5026704;28;20029;-89
2022/01/24 07:07:03;;;;;;;16.52;8.60;;;-0.40;99.90;;;;;;5029213;28;20100;-89
2022/01/24 07:09:29;;;;;;;17.25;8.25;;;-0.40;99.90;;;;;;5020310;28;20030;-89
2022/01/24 07:11:54;;;;;;;16.08;7.65;;;-0.50;99.90;;;;;;5026925;28;20083;-89
2022/01/24 07:14:20;;;;;;;17.75;8.18;;;-0.50;99.90;;;;;;5041806;28;20164;-88
2022/01/24 07:19:22;;;;;;;16.35;9.35;;;-0.40;99.90;;;;;;5026108;28;20569;-82
2022/01/24 07:21:48;;;;;;;14.07;8.60;;;-0.50;99.90;;;;;;5024259;28;20057;-92
2022/01/24 07:24:14;;;;;;;16.77;8.27;;;-0.60;99.90;;;;;;5023925;28;20142;-76
2022/01/24 07:26:40;;;;;;;18.00;9.00;;;-0.60;99.90;;;;;;5018755;28;20034;-82
2022/01/24 07:29:06;;;;;;;18.42;9.88;;;-0.60;99.90;;;;;;5026942;28;20108;-81
2022/01/24 07:31:31;;;;;;;18.05;9.38;;;-0.60;99.90;;;;;;5018476;28;20141;-82
2022/01/24 07:33:57;;;;;;;19.30;10.82;;;-0.60;99.90;;;;;;5010875;28;20042;-81
2022/01/24 07:36:24;;;;;;;20.75;10.90;;;-0.70;99.90;;;;;;5023190;28;20030;-84
2022/01/24 07:38:49;;;;;;;22.33;9.85;;;-0.60;99.90;;;;;;5013882;28;20043;-84
2022/01/24 07:41:22;;;;;;;20.33;10.15;;;-0.50;99.90;;;;;;5015632;28;20025;-83
2022/01/24 07:43:47;;;;;;;23.27;10.65;;;-0.40;99.90;;;;;;5012342;28;20564;-84
2022/01/24 07:46:13;;;;;;;21.00;11.68;;;-0.30;99.90;;;;;;5010628;28;20046;-84
2022/01/24 07:48:39;;;;;;;23.73;11.90;;;-0.40;99.90;;;;;;5014593;28;20406;-83
2022/01/24 07:51:05;;;;;;;22.25;12.00;;;-0.30;99.90;;;;;;5010962;28;20037;-83
2022/01/24 07:53:30;;;;;;;24.48;11.63;;;-0.20;99.90;;;;;;5010874;28;20026;-82
2022/01/24 07:55:57;;;;;;;27.65;12.27;;;-0.10;99.90;;;;;;5019914;28;20084;-84
2022/01/24 07:58:23;;;;;;;22.45;11.82;;;-0.10;99.90;;;;;;5020181;28;20116;-83
2022/01/24 08:00:49;;;;;;;32.10;13.90;;;-0.10;99.90;;;;;;5011659;28;20097;-84
2022/01/24 08:03:15;;;;;;;24.23;11.90;;;0.10;99.90;;;;;;5020379;28;20030;-84
2022/01/24 08:05:41;;;;;;;27.50;12.90;;;0.30;99.90;;;;;;5010855;28;20426;-83
2022/01/24 08:08:07;;;;;;;29.02;13.93;;;1.40;99.90;;;;;;5009643;28;20053;-83
2022/01/24 08:10:34;;;;;;;31.08;14.32;;;2.60;99.90;;;;;;5021633;28;20092;-81
2022/01/24 08:12:59;;;;;;;32.13;14.57;;;2.70;99.90;;;;;;5027644;28;20036;-81
2022/01/24 08:15:25;;;;;;;31.88;14.40;;;2.10;99.90;;;;;;5009426;28;20273;-82
2022/01/24 08:17:51;;;;;;;27.75;13.20;;;1.60;99.90;;;;;;5014911;28;20033;-83
2022/01/24 08:20:18;;;;;;;28.55;13.68;;;2.00;99.90;;;;;;5014178;28;20037;-83
2022/01/24 08:22:44;;;;;;;26.30;12.90;;;3.10;99.90;;;;;;5023597;28;20036;-85
2022/01/24 08:25:10;;;;;;;24.05;13.23;;;3.30;99.90;;;;;;5021183;28;20061;-84
2022/01/24 08:27:37;;;;;;;29.00;13.30;;;2.50;99.90;;;;;;5018064;28;20108;-86
2022/01/24 08:30:09;;;;;;;28.08;12.88;;;2.50;99.90;;;;;;5013385;28;20017;-85
2022/01/24 08:32:35;;;;;;;26.55;13.85;;;2.90;99.90;;;;;;5025015;28;20494;-82
2022/01/24 08:35:00;;;;;;;32.92;15.70;;;2.40;99.90;;;;;;5024111;28;20025;-87
2022/01/24 08:37:26;;;;;;;31.00;16.35;;;2.20;99.90;;;;;;5022516;28;20091;-87
2022/01/24 08:39:52;;;;;;;30.17;15.48;;;2.40;99.90;;;;;;5026519;28;20022;-88
2022/01/24 08:42:31;;;;;;;40.67;17.52;;;3.60;99.90;;;;;;5020611;28;20083;-86
2022/01/24 08:47:29;;;;;;;35.88;18.35;;;3.20;99.90;;;;;;5017444;28;20041;-85
2022/01/24 08:49:56;;;;;;;43.28;18.48;;;4.50;99.90;;;;;;5018950;28;20600;-86
2022/01/24 08:52:22;;;;;;;45.47;19.80;;;6.70;99.90;;;;;;5009557;28;20092;-89
2022/01/24 08:54:48;;;;;;;40.00;18.70;;;7.90;99.90;;;;;;5018368;28;20538;-87
2022/01/24 08:57:14;;;;;;;39.47;19.60;;;7.10;99.90;;;;;;5014677;28;20105;-88
2022/01/24 08:59:41;;;;;;;37.60;19.13;;;5.50;99.90;;;;;;5024279;28;20163;-90
2022/01/24 09:02:07;;;;;;;37.85;17.92;;;5.90;99.90;;;;;;5015235;28;20040;-90
2022/01/24 09:04:34;;;;;;;38.22;18.75;;;8.20;99.90;;;;;;5023580;28;20260;-88
2022/01/24 09:07:03;;;;;;;38.22;18.10;;;9.20;98.40;;;;;;5009297;28;20112;-83
2022/01/24 09:09:30;;;;;;;36.60;17.67;;;10.50;96.40;;;;;;5010197;28;20057;-84
2022/01/24 09:11:55;;;;;;;40.85;19.70;;;8.70;97.00;;;;;;5011539;28;20026;-82
2022/01/24 09:14:23;;;;;;;32.33;16.48;;;7.50;99.90;;;;;;5020395;28;20100;-83
2022/01/24 09:16:49;;;;;;;36.92;16.77;;;7.60;99.90;;;;;;5024135;28;20029;-83
2022/01/24 09:19:15;;;;;;;32.95;15.80;;;6.30;99.90;;;;;;5013776;28;20026;-82
2022/01/24 09:21:40;;;;;;;30.40;14.82;;;6.50;99.90;;;;;;5012340;28;20044;-83
2022/01/24 09:24:06;;;;;;;29.27;16.23;;;7.60;99.90;;;;;;5007357;28;20626;-82
2022/01/24 09:26:32;;;;;;;28.83;15.02;;;9.00;99.40;;;;;;5007545;28;20056;-82
2022/01/24 09:28:58;;;;;;;29.55;13.93;;;9.10;99.90;;;;;;5014989;28;20034;-83
2022/01/24 09:31:24;;;;;;;22.60;13.15;;;9.10;99.90;;;;;;5013681;28;20456;-82
2022/01/24 09:33:52;;;;;;;23.15;12.88;;;9.20;99.80;;;;;;5017697;28;20045;-81
2022/01/24 09:36:20;;;;;;;25.52;13.00;;;9.80;99.60;;;;;;5020306;28;20037;-80
2022/01/24 09:38:46;;;;;;;25.13;12.15;;;9.70;99.00;;;;;;5023070;28;20029;-80
2022/01/24 09:41:15;;;;;;;25.55;13.25;;;8.10;99.90;;;;;;5025172;28;20048;-80
2022/01/24 09:43:45;;;;;;;22.63;12.20;;;7.00;99.90;;;;;;5010038;28;20022;-80
2022/01/24 09:46:12;;;;;;;18.10;10.57;;;6.40;99.90;;;;;;5016642;28;20127;-79
2022/01/24 09:48:39;;;;;;;21.33;11.38;;;6.20;99.90;;;;;;5031397;28;20021;-79
2022/01/24 09:51:06;;;;;;;21.92;11.68;;;5.90;99.90;;;;;;5028582;28;20048;-79
2022/01/24 09:53:33;;;;;;;22.90;12.90;;;5.60;99.90;;;;;;5029294;28;20404;-79
2022/01/24 09:56:03;;;;;;;20.98;12.32;;;5.80;99.90;;;;;;5029782;28;20014;-78
2022/01/24 09:58:30;;;;;;;20.58;10.98;;;5.80;99.90;;;;;;5028474;28;20018;-78
2022/01/24 10:00:56;;;;;;;19.95;11.07;;;5.60;99.90;;;;;;5029519;28;20030;-78
2022/01/24 10:03:24;;;;;;;15.95;10.35;;;5.80;99.90;;;;;;5022504;28;20525;-78
2022/01/24 10:05:55;;;;;;;19.98;11.73;;;5.90;99.90;;;;;;5022240;28;20120;-78
2022/01/24 10:08:24;;;;;;;21.50;11.70;;;5.90;99.90;;;;;;5025890;28;20076;-78
2022/01/24 10:10:55;;;;;;;20.80;11.50;;;5.90;99.90;;;;;;5027296;28;20495;-78
2022/01/24 10:19:03;;;;;;;21.50;11.38;;;6.00;99.90;;;;;;5030500;28;20294;-78
2022/01/24 10:21:35;;;;;;;21.63;11.90;;;6.20;99.90;;;;;;5029519;28;20072;-79
2022/01/24 10:24:01;;;;;;;21.95;11.88;;;6.30;99.90;;;;;;5024346;28;20344;-78
2022/01/24 10:26:26;;;;;;;20.48;12.02;;;6.60;99.90;;;;;;5027658;28;20457;-77
2022/01/24 10:28:52;;;;;;;21.08;10.75;;;6.70;99.90;;;;;;5028092;28;20641;-77
2022/01/24 10:31:24;;;;;;;21.33;11.68;;;6.60;99.90;;;;;;5028176;28;20040;-78
2022/01/24 10:34:17;;;;;;;19.55;10.68;;;6.70;99.90;;;;;;5030133;28;20049;-78
2022/01/24 10:36:47;;;;;;;21.35;11.32;;;7.00;99.90;;;;;;5027899;28;20079;-78
2022/01/24 10:39:19;;;;;;;16.95;9.90;;;6.80;99.90;;;;;;5028243;28;20032;-78
2022/01/24 10:42:20;;;;;;;17.85;9.90;;;6.90;99.90;;;;;;5022570;28;20037;-78
2022/01/24 10:44:36;;;;;;;16.65;9.68;;;7.30;99.90;;;;;;5026968;28;20037;-78
2022/01/24 10:47:16;;;;;;;16.88;9.70;;;7.60;99.90;;;;;;5027942;28;20045;-79
2022/01/24 10:49:44;;;;;;;14.57;8.82;;;7.60;99.90;;;;;;5020685;28;20056;-78
2022/01/24 10:52:18;;;;;;;18.83;9.95;;;7.70;99.90;;;;;;5027105;28;20510;-78
2022/01/24 10:54:45;;;;;;;15.88;9.25;;;7.90;99.90;;;;;;5029026;28;20037;-78
2022/01/24 10:57:29;;;;;;;18.42;9.95;;;7.90;99.90;;;;;;5026494;28;20048;-78
2022/01/24 11:00:10;;;;;;;17.88;9.73;;;7.90;99.90;;;;;;5024920;28;20029;-78
2022/01/24 11:02:40;;;;;;;19.75;11.27;;;8.00;99.90;;;;;;5026719;28;20033;-78
2022/01/24 11:05:32;;;;;;;18.05;9.98;;;8.20;99.90;;;;;;5027503;28;20041;-78
2022/01/24 11:08:09;;;;;;;19.17;10.05;;;8.00;99.90;;;;;;5025902;28;20025;-78
2022/01/24 11:10:36;;;;;;;13.52;9.60;;;7.80;99.90;;;;;;5021292;28;20037;-77
2022/01/24 11:13:06;;;;;;;16.88;10.80;;;8.10;99.90;;;;;;5028779;28;20113;-77
2022/01/24 11:15:33;;;;;;;17.35;9.82;;;8.30;99.90;;;;;;5028478;28;20047;-77
2022/01/24 11:18:01;;;;;;;15.27;9.40;;;8.50;99.90;;;;;;5026660;28;20517;-78
2022/01/24 11:20:31;;;;;;;14.48;8.73;;;8.70;99.90;;;;;;5028065;28;20069;-79
2022/01/24 11:23:00;;;;;;;14.70;8.35;;;8.70;99.90;;;;;;5028281;28;20032;-78
2022/01/24 11:25:31;;;;;;;14.75;8.43;;;8.60;99.90;;;;;;5027362;28;20334;-78
2022/01/24 11:27:57;;;;;;;16.58;8.35;;;8.70;99.90;;;;;;5025004;28;20029;-78
2022/01/24 11:30:29;;;;;;;12.50;8.20;;;8.90;99.90;;;;;;5026805;28;20104;-78
2022/01/24 11:33:13;;;;;;;;;;;9.20;99.90;;;;;;5027471;28;20084;-77
2022/01/24 11:35:51;;;;;;;14.25;7.95;;;9.20;99.90;;;;;;5025415;28;19916;-80
2022/01/24 11:38:28;;;;;;;15.38;7.80;;;9.20;99.90;;;;;;5025240;28;20048;-81
2022/01/24 11:44:16;;;;;;;13.80;8.70;;;9.10;99.90;;;;;;5029401;28;20043;-80
2022/01/24 11:46:58;;;;;;;13.45;8.07;;;9.30;99.90;;;;;;5026538;28;20083;-79
2022/01/24 11:49:26;;;;;;;12.60;7.93;;;9.20;99.90;;;;;;5026027;28;20505;-79
2022/01/24 11:52:06;;;;;;;12.07;7.30;;;9.10;99.90;;;;;;5029232;28;20429;-79
2022/01/24 11:57:25;;;;;;;11.23;6.70;;;9.50;99.90;;;;;;5026771;28;20029;-80
2022/01/24 12:00:05;;;;;;;13.73;7.65;;;9.20;99.90;;;;;;5027391;28;20036;-80
2022/01/24 12:02:38;;;;;;;10.57;6.45;;;9.20;99.90;;;;;;5026201;28;20030;-80
2022/01/24 12:05:17;;;;;;;14.35;6.97;;;9.30;99.90;;;;;;5025355;28;20072;-80
2022/01/24 12:07:52;;;;;;;12.48;7.30;;;9.50;99.90;;;;;;5026146;28;20026;-79
2022/01/24 12:10:22;;;;;;;12.95;7.55;;;9.30;99.90;;;;;;5027710;28;20057;-79
2022/01/24 12:12:50;;;;;;;10.93;7.15;;;9.40;99.90;;;;;;5027250;28;20075;-79
2022/01/24 12:15:41;;;;;;;12.02;7.32;;;9.30;99.90;;;;;;5026775;28;20022;-80
2022/01/24 12:18:16;;;;;;;10.45;6.43;;;9.40;99.90;;;;;;5025702;28;20029;-79
2022/01/24 12:20:42;;;;;;;13.57;7.78;;;9.60;99.90;;;;;;5027398;28;20029;-80
2022/01/24 12:23:17;;;;;;;10.85;6.57;;;9.60;99.90;;;;;;5026388;28;20585;-79
2022/01/24 12:25:54;;;;;;;10.68;6.50;;;9.60;99.90;;;;;;5027345;28;20044;-80
2022/01/24 12:28:43;;;;;;;12.52;6.57;;;9.50;99.90;;;;;;5025867;28;20026;-79
2022/01/24 12:31:15;;;;;;;12.18;7.10;;;9.50;99.90;;;;;;5027417;28;20045;-79
2022/01/24 12:34:04;;;;;;;11.27;7.50;;;9.20;99.90;;;;;;5027042;28;20036;-79
2022/01/24 12:36:49;;;;;;;11.13;7.03;;;9.40;99.90;;;;;;5030698;28;20109;-79
2022/01/24 12:39:26;;;;;;;15.32;7.93;;;9.50;99.90;;;;;;5025130;28;20499;-79
2022/01/24 12:42:00;;;;;;;9.82;6.65;;;9.40;99.90;;;;;;5022777;28;20140;-78
2022/01/24 12:47:14;;;;;;;12.25;7.57;;;9.90;99.90;;;;;;5025636;28;20057;-78
2022/01/24 12:49:43;;;;;;;10.93;6.95;;;9.80;99.90;;;;;;5018342;28;20040;-79
2022/01/24 12:52:16;;;;;;;10.35;6.95;;;9.70;99.90;;;;;;5025076;28;20502;-79
2022/01/24 12:54:48;;;;;;;12.23;7.40;;;9.70;99.90;;;;;;5026335;28;20578;-79
2022/01/24 12:57:18;;;;;;;10.57;6.60;;;9.60;99.90;;;;;;5026246;28;20023;-79
2022/01/24 13:00:07;;;;;;;11.55;7.03;;;9.50;99.90;;;;;;5025531;28;20032;-80
2022/01/24 13:02:36;;;;;;;10.48;7.20;;;9.40;99.90;;;;;;5026082;28;20030;-79
2022/01/24 13:05:20;;;;;;;12.38;7.82;;;9.50;99.90;;;;;;5025126;28;20029;-79
2022/01/24 13:07:54;;;;;;;10.57;7.38;;;9.30;99.90;;;;;;5025976;28;20037;-80
2022/01/24 13:10:22;;;;;;;12.13;6.90;;;9.10;99.90;;;;;;5025196;28;20041;-80
2022/01/24 13:12:56;;;;;;;12.85;7.63;;;9.30;99.90;;;;;;5027846;28;20034;-80
2022/01/24 13:20:30;;;;;;;13.52;8.13;;;9.50;99.90;;;;;;5023857;28;20029;-80
2022/01/24 13:21:11;;;;;;;13.27;7.85;;;9.60;99.90;;;;;;5027712;28;20028;-79
2022/01/24 13:23:42;;;;;;;11.63;6.78;;;9.80;99.90;;;;;;5028928;28;20026;-80
2022/01/24 13:26:09;;;;;;;12.07;7.22;;;9.80;99.90;;;;;;5030277;28;20510;-80
2022/01/24 13:28:34;;;;;;;12.30;7.75;;;9.90;99.90;;;;;;5028399;28;20025;-79
2022/01/24 13:31:02;;;;;;;10.15;7.00;;;9.70;99.90;;;;;;5029511;28;20036;-80
2022/01/24 13:33:32;;;;;;;11.70;7.65;;;9.70;99.90;;;;;;5030034;28;20054;-80
2022/01/24 13:36:00;;;;;;;10.35;6.45;;;9.70;99.90;;;;;;5029008;28;20036;-81
2022/01/24 13:38:31;;;;;;;10.88;6.97;;;9.30;99.90;;;;;;5029390;28;20025;-81
2022/01/24 13:41:04;;;;;;;11.45;7.10;;;9.40;99.90;;;;;;5029411;28;20029;-80
2022/01/24 13:43:32;;;;;;;11.20;6.43;;;9.40;99.90;;;;;;5028310;28;20029;-80
2022/01/24 13:45:59;;;;;;;10.65;6.28;;;9.80;99.90;;;;;;5029702;28;20077;-80
2022/01/24 13:48:25;;;;;;;9.43;6.22;;;9.30;99.90;;;;;;5028395;28;20025;-80
2022/01/24 13:50:59;;;;;;;9.85;6.88;;;9.30;99.90;;;;;;5027978;28;20022;-80
2022/01/24 13:53:35;;;;;;;13.65;6.85;;;9.70;99.90;;;;;;5029211;28;20148;-80
2022/01/24 13:56:22;;;;;;;10.75;6.18;;;9.70;99.90;;;;;;5029966;28;20100;-80
2022/01/24 13:59:20;;;;;;;10.35;5.97;;;9.50;99.90;;;;;;5030000;28;20033;-80
2022/01/24 14:02:06;;;;;;;7.13;5.03;;;9.80;99.90;;;;;;5014015;28;20891;-79
2022/01/24 14:04:40;;;;;;;8.57;6.32;;;9.70;99.90;;;;;;5013721;28;20033;-80
2022/01/24 14:07:07;;;;;;;9.70;5.53;;;9.30;99.90;;;;;;5029945;28;20294;-79
2022/01/24 14:09:37;;;;;;;7.10;5.10;;;9.60;99.90;;;;;;5028883;28;20048;-80
2022/01/24 14:12:05;;;;;;;8.88;5.13;;;9.40;99.90;;;;;;5028897;28;20021;-79
2022/01/24 14:14:45;;;;;;;10.13;5.75;;;9.40;99.90;;;;;;5029008;28;20029;-80
2022/01/24 14:19:42;;;;;;;6.90;4.55;;;9.60;99.90;;;;;;5028851;28;20029;-79
2022/01/24 14:22:09;;;;;;;11.10;4.35;;;9.40;99.90;;;;;;5029595;28;20116;-79
2022/01/24 14:24:42;;;;;;;10.15;5.30;;;9.40;99.90;;;;;;5038165;28;20151;-80
2022/01/24 14:27:08;;;;;;;6.50;4.40;;;9.30;99.90;;;;;;5028475;28;20037;-77
2022/01/24 14:29:38;;;;;;;7.28;4.75;;;9.40;99.90;;;;;;5025505;28;20396;-79
2022/01/24 14:32:10;;;;;;;7.78;4.13;;;9.60;99.90;;;;;;5026539;28;20076;-79
2022/01/24 14:34:37;;;;;;;6.68;4.47;;;9.80;99.90;;;;;;5029036;28;20049;-79
2022/01/24 14:37:07;;;;;;;7.25;4.78;;;9.70;99.90;;;;;;5028156;28;20032;-79
2022/01/24 14:39:43;;;;;;;6.32;4.22;;;10.00;99.90;;;;;;5029834;28;20076;-79
2022/01/24 14:42:13;;;;;;;9.35;5.38;;;9.80;99.90;;;;;;5028588;28;20041;-79
2022/01/24 14:44:54;;;;;;;8.25;4.35;;;9.60;99.90;;;;;;5028400;28;20029;-78
2022/01/24 14:47:24;;;;;;;6.47;4.25;;;9.40;99.90;;;;;;5025845;28;20045;-79
2022/01/24 14:49:50;;;;;;;7.47;4.53;;;9.30;99.90;;;;;;5015539;28;20131;-79
2022/01/24 14:52:19;;;;;;;6.35;4.57;;;9.80;99.90;;;;;;5028824;28;20491;-79
2022/01/24 14:54:45;;;;;;;9.60;4.53;;;10.00;99.90;;;;;;5030555;28;20080;-79
2022/01/24 14:57:13;;;;;;;10.02;4.45;;;10.00;99.90;;;;;;5027195;28;20025;-79
2022/01/24 14:59:42;;;;;;;7.93;4.78;;;10.10;99.90;;;;;;5027829;28;20141;-78